Details From LIMJ - Genova Sestri
To LFKC - St Catherine
Flight Number -
Tags Other
Created
Modified
Stats Distance 113 nm / 208 km
Max Altitude 0 ft / 0 m
Waypoints 3
Social Downloads 6
Likes 0
Share VATSIM

Download

Looking for another format? Having issues loading an existing format? Contact us
Advertisement - Login to hide

Notes

None

Route

LIMJ MAPTB LFKC

ID Type Via Altitude Latitude Longitude Leg Dist Tot Dist Heading (true) Name
O LIMJ APT - 0 ft / 0 m 44.41542˚ 8.82419˚ - 0 nm - -
MAPTB FIX - 0 ft / 0 m 42.60036˚ 8.79265˚ 109 nm 109 nm 181° / 181° -
O LFKC APT - 0 ft / 0 m 42.54117˚ 8.79283˚ 3 nm 112 nm 180° / 180° -

Altitude Profile

Advertisement - Login to hide

LIMJ

Details ICAO LIMJ (GOA)
Name Genova Sestri
Region Italy
Timezone Unknown (UTC+0.0)
Stats Elevation 13 ft / 4 m (AMSL)
Location 44.411957° 8.841866°
Runways 1
Magnetic Variation 2.388° E

METAR

LIMJ 170150Z 36011G21KT 330V030 CAVOK 09/M06 Q1015

Decode

TAF

TAF LIMJ 162300Z 1700/1724 04012KT CAVOK

Decode

Departure Runways

ID Width Length Bearing (true) Bearing (mag) Surface Threshold Offset Overrun Length
10 148 ft / 45 m 9,574 ft / 2,918 m 105.39° 103.00° Asphalt 0 ft / 0 m 0 ft / 0 m
28 148 ft / 45 m 9,574 ft / 2,918 m 285.41° 283.02° Asphalt 538 ft / 164 m 0 ft / 0 m

LFKC

Details ICAO LFKC (CLY)
Name St Catherine
Region France
Timezone Europe/Paris (UTC+1.0)
Stats Elevation 208 ft / 63 m (AMSL)
Location 42.530762° 8.792925°
Runways 1
Magnetic Variation 2.343° E

METAR

LFKC 170200Z AUTO 20006KT CAVOK 03/M01 Q1014

Decode

TAF

TAF LFKC 170200Z 1703/1803 19006KT 9999 FEW030 SCT060 BKN150 TEMPO 1711/1715 01010KT PROB30 TEMPO 1709/1718 4000 SHRA SCT025TCU TX12/1713Z TN03/1704Z

Decode

Destination Runways

ID Width Length Bearing (true) Bearing (mag) Surface Threshold Offset Overrun Length
18 131 ft / 40 m 7,596 ft / 2,315 m 179.60° 177.26° Concrete 0 ft / 0 m 0 ft / 0 m
36 131 ft / 40 m 7,596 ft / 2,315 m 359.60° 357.26° Concrete 656 ft / 200 m 0 ft / 0 m

Approach Navaids

Runway Type Ident Frequency Range Bearing (true) Bearing (mag) Slope Elevation
18 Localiser CLI 109.50 MHz 18 nm / 33 km 179.62° 177.27° - 230 ft / 70 m (AMSL)
18 DME CLI 109.50 MHz 18 nm / 33 km - - - 230 ft / 70 m (AMSL)

Popular Alternatives